createdAt,value
2022-11-14T00:00:09.922Z,102049.80
2022-11-14T00:00:39.884Z,102045.68
2022-11-14T00:01:09.862Z,102046.16
2022-11-14T00:01:39.824Z,102042.38
2022-11-14T00:02:09.798Z,102041.70
2022-11-14T00:02:39.961Z,102042.72
2022-11-14T00:03:10.053Z,102042.70
2022-11-14T00:03:40.068Z,102046.18
2022-11-14T00:04:10.035Z,102045.19
2022-11-14T00:04:40.006Z,102041.05
2022-11-14T00:05:09.973Z,102046.18
2022-11-14T00:05:39.935Z,102040.05
2022-11-14T00:06:09.919Z,102038.75
2022-11-14T00:06:39.998Z,102042.86
2022-11-14T00:07:10.091Z,102040.08
2022-11-14T00:07:40.135Z,102041.23
2022-11-14T00:08:10.108Z,102037.45
2022-11-14T00:08:40.094Z,102041.41
2022-11-14T00:09:10.064Z,102038.92
2022-11-14T00:09:40.028Z,102038.27
2022-11-14T00:10:10.049Z,102040.89
2022-11-14T00:10:40.024Z,102040.07
2022-11-14T00:11:10.039Z,102035.12
2022-11-14T00:11:40.020Z,102038.43
2022-11-14T00:12:10.024Z,102035.15
2022-11-14T00:12:39.999Z,102035.80
2022-11-14T00:13:09.974Z,102033.14
2022-11-14T00:13:39.972Z,102032.65
2022-11-14T00:14:09.936Z,102032.48
2022-11-14T00:14:39.921Z,102036.10
2022-11-14T00:15:09.891Z,102034.62
2022-11-14T00:15:39.879Z,102035.16
2022-11-14T00:16:09.865Z,102035.16
2022-11-14T00:16:39.833Z,102030.36
2022-11-14T00:17:09.795Z,102032.20
2022-11-14T00:17:39.769Z,102034.33
2022-11-14T00:18:09.851Z,102028.39
2022-11-14T00:18:39.824Z,102030.53
2022-11-14T00:19:09.806Z,102028.38
2022-11-14T00:19:39.807Z,102030.37
2022-11-14T00:20:09.777Z,102026.08
2022-11-14T00:20:39.750Z,102031.84
2022-11-14T00:21:09.738Z,102028.55
2022-11-14T00:21:39.702Z,102030.70
2022-11-14T00:22:09.693Z,102027.56
2022-11-14T00:22:39.691Z,102024.11
2022-11-14T00:23:09.659Z,102023.77
2022-11-14T00:23:39.624Z,102021.29
2022-11-14T00:24:09.587Z,102022.91
2022-11-14T00:24:39.591Z,102021.14
2022-11-14T00:25:09.586Z,102018.16
2022-11-14T00:25:39.548Z,102021.12
2022-11-14T00:26:09.529Z,102020.31
2022-11-14T00:26:39.501Z,102016.67
2022-11-14T00:27:09.491Z,102018.83
2022-11-14T00:27:39.468Z,102019.98
2022-11-14T00:28:09.442Z,102018.83
2022-11-14T00:28:39.413Z,102024.27
2022-11-14T00:29:09.416Z,102018.35
2022-11-14T00:29:39.419Z,102017.03
2022-11-14T00:30:09.382Z,102022.79
2022-11-14T00:30:39.354Z,102013.40
2022-11-14T00:31:09.325Z,102018.50
2022-11-14T00:31:39.325Z,102018.33
2022-11-14T00:32:09.301Z,102017.36
2022-11-14T00:32:39.276Z,102017.50
2022-11-14T00:33:09.237Z,102018.50
2022-11-14T00:33:39.354Z,102019.16
2022-11-14T00:34:09.312Z,102019.98
2022-11-14T00:34:39.281Z,102013.23
2022-11-14T00:35:09.276Z,102017.84
2022-11-14T00:35:39.242Z,102017.84
2022-11-14T00:36:09.212Z,102012.06
2022-11-14T00:36:39.179Z,102012.09
2022-11-14T00:37:09.166Z,102012.23
2022-11-14T00:37:39.130Z,102014.05
2022-11-14T00:38:09.104Z,102014.05
2022-11-14T00:38:39.067Z,102010.41
2022-11-14T00:39:09.038Z,102013.70
2022-11-14T00:39:39.000Z,102006.95
2022-11-14T00:40:08.972Z,102009.12
2022-11-14T00:40:38.945Z,102005.61
2022-11-14T00:41:08.920Z,102004.64
2022-11-14T00:41:38.882Z,102006.46
2022-11-14T00:42:08.859Z,102006.98
2022-11-14T00:42:38.920Z,102006.47
2022-11-14T00:43:08.885Z,102008.44
2022-11-14T00:43:38.847Z,102004.33
2022-11-14T00:44:08.844Z,102009.10
2022-11-14T00:44:38.801Z,102004.80
2022-11-14T00:45:08.778Z,102006.97
2022-11-14T00:45:38.741Z,102000.84
2022-11-14T00:46:08.711Z,102001.01
2022-11-14T00:46:38.683Z,102004.98
2022-11-14T00:47:08.655Z,102003.50
2022-11-14T00:47:38.643Z,102003.81
2022-11-14T00:48:08.656Z,102000.87
2022-11-14T00:48:38.625Z,101996.58
2022-11-14T00:49:08.705Z,101998.22
2022-11-14T00:49:38.669Z,101998.73
2022-11-14T00:50:08.642Z,102000.36
2022-11-14T00:50:38.799Z,102000.54
2022-11-14T00:51:08.778Z,101996.06
2022-11-14T00:51:38.739Z,101997.20
2022-11-14T00:52:08.711Z,101991.93
2022-11-14T00:52:38.705Z,101998.36
2022-11-14T00:53:08.673Z,101995.89
2022-11-14T00:53:38.681Z,101990.79
2022-11-14T00:54:08.652Z,101993.42
2022-11-14T00:54:38.635Z,101994.41
2022-11-14T00:55:08.606Z,101986.16
2022-11-14T00:55:38.614Z,101987.33
2022-11-14T00:56:08.583Z,101985.67
2022-11-14T00:56:38.571Z,101989.48
2022-11-14T00:57:08.545Z,101986.34
2022-11-14T00:57:38.516Z,101987.34
2022-11-14T00:58:08.495Z,101981.23
2022-11-14T00:58:38.504Z,101983.88
2022-11-14T00:59:08.490Z,101985.03
2022-11-14T00:59:38.463Z,101983.56
2022-11-14T01:00:08.425Z,101981.08
2022-11-14T01:00:38.523Z,101978.62
2022-11-14T01:01:08.623Z,101974.80
2022-11-14T01:01:38.636Z,101983.87
2022-11-14T01:02:08.637Z,101978.09
2022-11-14T01:02:38.598Z,101978.25
2022-11-14T01:03:08.587Z,101978.94
2022-11-14T01:03:38.551Z,101980.57
2022-11-14T01:04:08.523Z,101979.09
2022-11-14T01:04:38.617Z,101976.28
2022-11-14T01:05:08.579Z,101973.98
2022-11-14T01:05:38.580Z,101977.61
2022-11-14T01:06:08.563Z,101976.13
2022-11-14T01:06:38.543Z,101973.48
2022-11-14T01:07:08.511Z,101978.12
2022-11-14T01:07:38.483Z,101970.53
2022-11-14T01:08:08.471Z,101971.33
2022-11-14T01:08:38.455Z,101969.05
2022-11-14T01:09:08.501Z,101967.72
2022-11-14T01:09:38.509Z,101970.70
2022-11-14T01:10:08.487Z,101968.70
2022-11-14T01:10:38.496Z,101971.52
2022-11-14T01:11:08.468Z,101972.51
2022-11-14T01:11:38.440Z,101970.02
2022-11-14T01:12:08.414Z,101970.84
2022-11-14T01:12:38.386Z,101965.42
2022-11-14T01:13:08.359Z,101965.89
2022-11-14T01:13:38.347Z,101963.77
2022-11-14T01:14:08.319Z,101965.89
2022-11-14T01:14:38.282Z,101967.22
2022-11-14T01:15:08.264Z,101970.86
2022-11-14T01:15:38.237Z,101965.93
2022-11-14T01:16:08.229Z,101970.70
2022-11-14T01:16:38.194Z,101968.86
2022-11-14T01:17:08.156Z,101966.06
2022-11-14T01:17:38.132Z,101972.17
2022-11-14T01:18:08.133Z,101969.23
2022-11-14T01:18:38.138Z,101967.42
2022-11-14T01:19:08.101Z,101966.59
2022-11-14T01:19:38.074Z,101958.00
2022-11-14T01:20:08.160Z,101966.08
2022-11-14T01:20:38.129Z,101965.59
2022-11-14T01:21:08.102Z,101969.05
2022-11-14T01:21:38.067Z,101964.11
2022-11-14T01:22:08.029Z,101966.23
2022-11-14T01:22:38.001Z,101968.86
2022-11-14T01:23:07.965Z,101968.05
2022-11-14T01:23:37.949Z,101964.92
2022-11-14T01:24:07.938Z,101964.42
2022-11-14T01:24:37.897Z,101966.40
2022-11-14T01:25:07.861Z,101965.91
2022-11-14T01:25:37.825Z,101965.24
2022-11-14T01:26:07.805Z,101961.94
2022-11-14T01:26:37.790Z,101962.77
2022-11-14T01:27:07.764Z,101959.63
2022-11-14T01:27:37.736Z,101960.48
2022-11-14T01:28:07.715Z,101962.78
2022-11-14T01:28:37.694Z,101962.62
2022-11-14T01:29:07.710Z,101962.62
2022-11-14T01:29:37.670Z,101966.26
2022-11-14T01:30:07.646Z,101955.85
2022-11-14T01:30:37.617Z,101958.50
2022-11-14T01:31:07.602Z,101960.98
2022-11-14T01:31:37.576Z,101962.44
2022-11-14T01:32:07.544Z,101959.00
2022-11-14T01:32:37.523Z,101958.00
2022-11-14T01:33:07.508Z,101957.02
2022-11-14T01:33:37.480Z,101952.56
2022-11-14T01:34:07.464Z,101954.19
2022-11-14T01:34:37.432Z,101952.55
2022-11-14T01:35:07.393Z,101953.03
2022-11-14T01:35:37.484Z,101950.23
2022-11-14T01:36:07.450Z,101950.07
2022-11-14T01:36:37.431Z,101950.23
2022-11-14T01:37:07.393Z,101951.23
2022-11-14T01:37:37.375Z,101954.06
2022-11-14T01:38:07.370Z,101949.45
2022-11-14T01:38:37.343Z,101951.06
2022-11-14T01:39:07.331Z,101947.30
2022-11-14T01:39:37.301Z,101949.61
2022-11-14T01:40:07.273Z,101952.42
2022-11-14T01:40:37.252Z,101948.61
2022-11-14T01:41:07.219Z,101949.77
2022-11-14T01:41:37.195Z,101947.13
2022-11-14T01:42:07.193Z,101946.65
2022-11-14T01:42:37.168Z,101947.80
2022-11-14T01:43:07.142Z,101944.35
2022-11-14T01:43:37.112Z,101948.28
2022-11-14T01:44:07.105Z,101942.53
2022-11-14T01:44:37.090Z,101945.65
2022-11-14T01:45:07.100Z,101936.58
2022-11-14T01:45:37.073Z,101938.75
2022-11-14T01:46:07.044Z,101936.76
2022-11-14T01:46:37.008Z,101939.06
2022-11-14T01:47:06.982Z,101933.14
2022-11-14T01:47:36.945Z,101936.76
2022-11-14T01:48:06.917Z,101931.47
2022-11-14T01:48:36.900Z,101930.65
2022-11-14T01:49:06.897Z,101929.00
2022-11-14T01:49:36.877Z,101925.21
2022-11-14T01:50:06.843Z,101922.76
2022-11-14T01:50:36.817Z,101924.56
2022-11-14T01:51:06.909Z,101926.70
2022-11-14T01:51:36.872Z,101922.91
2022-11-14T01:52:06.845Z,101925.22
2022-11-14T01:52:36.827Z,101929.18
2022-11-14T01:53:06.811Z,101923.08
2022-11-14T01:53:36.783Z,101919.30
2022-11-14T01:54:06.757Z,101921.77
2022-11-14T01:54:36.745Z,101918.12
2022-11-14T01:55:06.699Z,101924.39
2022-11-14T01:55:36.674Z,101923.73
2022-11-14T01:56:06.669Z,101923.25
2022-11-14T01:56:36.650Z,101925.72
2022-11-14T01:57:06.618Z,101922.77
2022-11-14T01:57:36.632Z,101922.12
2022-11-14T01:58:06.649Z,101923.42
2022-11-14T01:58:36.621Z,101917.83
2022-11-14T01:59:06.599Z,101919.47
2022-11-14T01:59:36.584Z,101920.62
2022-11-14T02:00:06.549Z,101913.02
2022-11-14T02:00:36.511Z,101917.96
2022-11-14T02:01:06.553Z,101917.96
2022-11-14T02:01:36.573Z,101919.61
2022-11-14T02:02:06.570Z,101918.62
2022-11-14T02:02:36.544Z,101915.33
2022-11-14T02:03:06.507Z,101915.36
2022-11-14T02:03:36.489Z,101912.88
2022-11-14T02:04:06.947Z,101910.38
2022-11-14T02:04:38.100Z,101908.08
2022-11-14T02:05:08.074Z,101908.89
2022-11-14T02:05:38.043Z,101913.52
2022-11-14T02:06:08.021Z,101910.88
2022-11-14T02:06:38.108Z,101909.91
2022-11-14T02:07:08.187Z,101910.91
2022-11-14T02:07:38.305Z,101906.09
2022-11-14T02:08:08.312Z,101909.09
2022-11-14T02:08:38.313Z,101904.97
2022-11-14T02:09:08.290Z,101906.61
2022-11-14T02:09:38.314Z,101909.77
2022-11-14T02:10:08.275Z,101900.53
2022-11-14T02:10:38.248Z,101901.52
2022-11-14T02:11:08.219Z,101905.45
2022-11-14T02:11:38.198Z,101899.53
2022-11-14T02:12:08.165Z,101898.38
2022-11-14T02:12:38.125Z,101900.70
2022-11-14T02:13:08.101Z,101901.00
2022-11-14T02:13:38.074Z,101902.48
2022-11-14T02:14:08.036Z,101902.98
2022-11-14T02:14:38.013Z,101901.83
2022-11-14T02:15:07.986Z,101896.72
2022-11-14T02:15:37.957Z,101895.39
2022-11-14T02:16:07.920Z,101894.27
2022-11-14T02:16:37.915Z,101893.94
2022-11-14T02:17:28.369Z,101897.55
2022-11-14T02:17:42.800Z,101891.27
2022-11-14T02:18:12.765Z,101892.75
2022-11-14T02:18:42.736Z,101890.44
2022-11-14T02:19:12.712Z,101887.66
2022-11-14T02:19:42.688Z,101886.01
2022-11-14T02:20:12.676Z,101886.31
2022-11-14T02:20:42.647Z,101882.05
2022-11-14T02:21:12.621Z,101885.00
2022-11-14T02:21:42.721Z,101886.16
2022-11-14T02:22:12.685Z,101881.89
2022-11-14T02:22:42.695Z,101882.72
2022-11-14T02:23:12.667Z,101879.57
2022-11-14T02:23:42.650Z,101879.41
2022-11-14T02:24:12.611Z,101877.76
2022-11-14T02:24:42.586Z,101878.59
2022-11-14T02:25:12.576Z,101877.44
2022-11-14T02:25:42.546Z,101878.41
2022-11-14T02:26:12.519Z,101877.91
2022-11-14T02:26:42.477Z,101881.22
2022-11-14T02:27:12.451Z,101882.36
2022-11-14T02:27:42.415Z,101875.30
2022-11-14T02:28:12.425Z,101877.94
2022-11-14T02:28:42.406Z,101872.17
2022-11-14T02:29:12.372Z,101870.20
2022-11-14T02:29:42.350Z,101875.30
2022-11-14T02:30:12.324Z,101869.36
2022-11-14T02:30:42.292Z,101877.12
2022-11-14T02:31:12.267Z,101874.14
2022-11-14T02:31:42.228Z,101873.49
2022-11-14T02:32:12.219Z,101873.66
2022-11-14T02:33:09.441Z,101872.49
2022-11-14T02:33:17.109Z,101873.16
2022-11-14T02:33:47.073Z,101875.47
2022-11-14T02:34:17.045Z,101875.98
2022-11-14T02:34:47.027Z,101875.30
2022-11-14T02:35:17.000Z,101871.52
2022-11-14T02:35:46.975Z,101871.52
2022-11-14T02:36:16.963Z,101869.54
2022-11-14T02:36:47.058Z,101872.49
2022-11-14T02:37:17.022Z,101869.01
2022-11-14T02:37:46.994Z,101868.69
2022-11-14T02:38:16.970Z,101871.69
2022-11-14T02:38:46.952Z,101868.20
2022-11-14T02:39:16.920Z,101868.87
2022-11-14T02:39:46.950Z,101874.45
2022-11-14T02:40:16.922Z,101868.20
2022-11-14T02:40:46.899Z,101867.39
2022-11-14T02:41:16.893Z,101867.20
2022-11-14T02:41:46.865Z,101868.87
2022-11-14T02:42:16.826Z,101869.03
2022-11-14T02:42:46.789Z,101862.94
2022-11-14T02:43:16.763Z,101861.64
2022-11-14T02:43:46.735Z,101863.76
2022-11-14T02:44:16.707Z,101858.98
2022-11-14T02:44:46.683Z,101863.28
2022-11-14T02:45:16.658Z,101862.30
2022-11-14T02:45:46.649Z,101862.30
2022-11-14T02:46:16.648Z,101859.99
2022-11-14T02:46:46.612Z,101857.35
2022-11-14T02:47:16.586Z,101852.88
2022-11-14T02:47:47.180Z,101856.02
2022-11-14T02:48:17.150Z,101857.84
2022-11-14T02:48:47.124Z,101856.84
2022-11-14T02:49:17.085Z,101854.51
2022-11-14T02:49:47.556Z,101853.38
2022-11-14T02:50:17.517Z,101851.40
2022-11-14T02:50:47.487Z,101857.33
2022-11-14T02:51:17.544Z,101855.02
2022-11-14T02:51:47.537Z,101851.89
2022-11-14T02:52:17.621Z,101848.43
2022-11-14T02:52:47.584Z,101851.41
2022-11-14T02:53:17.557Z,101846.45
2022-11-14T02:53:47.529Z,101847.94
2022-11-14T02:54:17.502Z,101850.40
2022-11-14T02:54:53.207Z,101842.97
2022-11-14T02:55:22.401Z,101848.75
2022-11-14T02:55:52.386Z,101847.59
2022-11-14T02:56:22.362Z,101847.11
2022-11-14T02:56:52.332Z,101849.92
2022-11-14T02:57:22.315Z,101851.40
2022-11-14T02:57:52.287Z,101851.58
2022-11-14T02:58:22.260Z,101846.78
2022-11-14T02:58:52.234Z,101845.80
2022-11-14T02:59:22.206Z,101842.84
2022-11-14T02:59:52.197Z,101849.09
2022-11-14T03:00:22.163Z,101846.92
2022-11-14T03:01:18.344Z,101847.94
2022-11-14T03:01:27.156Z,101844.97
2022-11-14T03:01:57.208Z,101845.80
2022-11-14T03:02:27.182Z,101847.14
2022-11-14T03:02:57.167Z,101847.45
2022-11-14T03:03:27.136Z,101834.61
2022-11-14T03:03:57.109Z,101837.91
2022-11-14T03:04:27.104Z,101831.80
2022-11-14T03:04:57.102Z,101831.81
2022-11-14T03:05:27.063Z,101830.80
2022-11-14T03:05:57.044Z,101830.80
2022-11-14T03:06:27.018Z,101828.84
2022-11-14T03:06:57.058Z,101828.99
2022-11-14T03:07:27.267Z,101826.22
2022-11-14T03:07:57.552Z,101828.67
2022-11-14T03:08:27.841Z,101825.19
2022-11-14T03:08:58.026Z,101825.19
2022-11-14T03:09:27.994Z,101819.61
2022-11-14T03:09:57.990Z,101821.74
2022-11-14T03:10:27.997Z,101820.93
2022-11-14T03:10:57.968Z,101823.72
2022-11-14T03:11:27.946Z,101819.62
2022-11-14T03:11:57.918Z,101817.45
2022-11-14T03:12:27.912Z,101818.62
2022-11-14T03:12:57.883Z,101818.27
2022-11-14T03:13:27.890Z,101819.77
2022-11-14T03:13:57.888Z,101820.08
2022-11-14T03:14:27.881Z,101810.86
2022-11-14T03:14:57.868Z,101815.30
2022-11-14T03:15:27.833Z,101814.47
2022-11-14T03:15:57.821Z,101815.15
2022-11-14T03:16:27.832Z,101811.20
2022-11-14T03:16:57.808Z,101810.86
2022-11-14T03:17:27.768Z,101807.39
2022-11-14T03:17:57.738Z,101813.34
2022-11-14T03:18:28.190Z,101805.77
2022-11-14T03:18:58.436Z,101810.05
2022-11-14T03:19:28.427Z,101806.59
2022-11-14T03:19:58.416Z,101810.22
2022-11-14T03:20:28.375Z,101810.04
2022-11-14T03:20:58.352Z,101804.78
2022-11-14T03:21:28.323Z,101812.34
2022-11-14T03:21:58.298Z,101803.94
2022-11-14T03:22:28.270Z,101800.30
2022-11-14T03:22:58.360Z,101796.86
2022-11-14T03:23:28.326Z,101797.33
2022-11-14T03:23:58.299Z,101799.16
2022-11-14T03:24:28.270Z,101798.34
2022-11-14T03:24:58.293Z,101796.19
2022-11-14T03:25:28.265Z,101798.66
2022-11-14T03:25:58.237Z,101793.22
2022-11-14T03:26:28.226Z,101795.70
2022-11-14T03:26:58.192Z,101798.01
2022-11-14T03:27:28.214Z,101795.04
2022-11-14T03:27:58.393Z,101798.19
2022-11-14T03:28:28.640Z,101800.30
2022-11-14T03:28:58.830Z,101791.56
2022-11-14T03:29:28.804Z,101798.67
2022-11-14T03:29:58.781Z,101791.58
2022-11-14T03:30:28.774Z,101795.38
2022-11-14T03:30:58.760Z,101791.41
2022-11-14T03:31:28.724Z,101791.09
2022-11-14T03:31:58.697Z,101795.36
2022-11-14T03:32:28.668Z,101793.22
2022-11-14T03:32:58.633Z,101792.08
2022-11-14T03:33:28.602Z,101791.43
2022-11-14T03:33:58.575Z,101790.59
2022-11-14T03:34:28.560Z,101790.94
2022-11-14T03:34:58.529Z,101790.44
2022-11-14T03:35:28.522Z,101788.44
2022-11-14T03:35:58.517Z,101787.47
2022-11-14T03:36:28.492Z,101790.77
2022-11-14T03:36:58.454Z,101789.94
2022-11-14T03:37:28.427Z,101788.78
2022-11-14T03:37:58.404Z,101793.36
2022-11-14T03:38:28.833Z,101793.54
2022-11-14T03:38:59.144Z,101790.09
2022-11-14T03:39:29.116Z,101791.91
2022-11-14T03:39:59.098Z,101787.46
2022-11-14T03:40:29.078Z,101788.45
2022-11-14T03:40:59.042Z,101787.12
2022-11-14T03:41:29.026Z,101787.95
2022-11-14T03:41:59.004Z,101785.31
2022-11-14T03:42:28.992Z,101786.48
2022-11-14T03:42:58.976Z,101784.99
2022-11-14T03:43:28.938Z,101786.98
2022-11-14T03:43:58.911Z,101785.31
2022-11-14T03:44:28.884Z,101788.78
2022-11-14T03:44:58.854Z,101785.99
2022-11-14T03:45:28.831Z,101787.97
2022-11-14T03:45:58.806Z,101780.38
2022-11-14T03:46:28.806Z,101784.67
2022-11-14T03:46:58.777Z,101782.20
2022-11-14T03:47:28.744Z,101775.91
2022-11-14T03:47:58.763Z,101780.37
2022-11-14T03:48:29.186Z,101775.09
2022-11-14T03:48:59.290Z,101778.89
2022-11-14T03:49:29.277Z,101777.41
2022-11-14T03:49:59.289Z,101781.84
2022-11-14T03:50:29.259Z,101782.02
2022-11-14T03:50:59.235Z,101778.05
2022-11-14T03:51:29.230Z,101775.73
2022-11-14T03:51:59.197Z,101784.48
2022-11-14T03:52:29.162Z,101779.39
2022-11-14T03:52:59.135Z,101781.36
2022-11-14T03:53:29.121Z,101780.03
2022-11-14T03:53:59.213Z,101781.54
2022-11-14T03:54:29.177Z,101778.73
2022-11-14T03:54:59.141Z,101772.44
2022-11-14T03:55:29.116Z,101773.28
2022-11-14T03:55:59.098Z,101778.56
2022-11-14T03:56:29.085Z,101771.95
2022-11-14T03:56:59.051Z,101775.25
2022-11-14T03:57:29.024Z,101773.30
2022-11-14T03:57:59.000Z,101774.09
2022-11-14T03:58:29.373Z,101769.83
2022-11-14T03:58:59.468Z,101775.43
2022-11-14T03:59:29.445Z,101770.31
2022-11-14T03:59:59.415Z,101770.83
2022-11-14T04:00:29.517Z,101774.61
2022-11-14T04:00:59.618Z,101775.75
2022-11-14T04:01:29.614Z,101771.48
2022-11-14T04:01:59.586Z,101771.80
2022-11-14T04:02:29.554Z,101767.87
2022-11-14T04:02:59.520Z,101769.17
2022-11-14T04:03:29.493Z,101773.80
2022-11-14T04:03:59.477Z,101767.20
2022-11-14T04:04:29.442Z,101773.46
2022-11-14T04:04:59.417Z,101764.05
2022-11-14T04:05:29.398Z,101770.16
2022-11-14T04:05:59.395Z,101773.11
2022-11-14T04:06:29.397Z,101768.34
2022-11-14T04:06:59.433Z,101758.94
2022-11-14T04:07:29.529Z,101767.84
2022-11-14T04:07:59.522Z,101765.86
2022-11-14T04:08:29.940Z,101766.38
2022-11-14T04:09:00.163Z,101766.19
2022-11-14T04:09:30.243Z,101769.84
2022-11-14T04:10:00.214Z,101770.00
2022-11-14T04:10:30.181Z,101765.05
2022-11-14T04:11:00.162Z,101771.82
2022-11-14T04:11:30.140Z,101771.31
2022-11-14T04:12:00.104Z,101769.34
2022-11-14T04:12:30.076Z,101771.81
2022-11-14T04:13:00.160Z,101772.79
2022-11-14T04:13:30.129Z,101767.20
2022-11-14T04:14:00.103Z,101773.30
2022-11-14T04:14:30.089Z,101767.70
2022-11-14T04:15:00.058Z,101773.12
2022-11-14T04:15:30.039Z,101767.36
2022-11-14T04:16:00.013Z,101765.88
2022-11-14T04:16:30.009Z,101767.87
2022-11-14T04:16:59.971Z,101770.66
2022-11-14T04:17:29.943Z,101770.50
2022-11-14T04:17:59.915Z,101771.47
2022-11-14T04:18:30.281Z,101766.69
2022-11-14T04:19:00.558Z,101765.05
2022-11-14T04:19:30.528Z,101765.87
2022-11-14T04:20:00.500Z,101765.39
2022-11-14T04:20:30.475Z,101765.05
2022-11-14T04:21:00.488Z,101764.22
2022-11-14T04:21:30.465Z,101761.77
2022-11-14T04:22:00.438Z,101765.19
2022-11-14T04:22:30.403Z,101758.62
2022-11-14T04:23:00.379Z,101766.05
2022-11-14T04:23:30.348Z,101757.45
2022-11-14T04:24:00.329Z,101758.27
2022-11-14T04:24:30.308Z,101754.99
2022-11-14T04:25:00.396Z,101753.35
2022-11-14T04:25:30.364Z,101754.00
2022-11-14T04:26:00.332Z,101755.00
2022-11-14T04:26:30.290Z,101754.48
2022-11-14T04:27:00.269Z,101754.00
2022-11-14T04:27:30.233Z,101755.33
2022-11-14T04:28:00.209Z,101756.65
2022-11-14T04:28:30.562Z,101751.88
2022-11-14T04:29:00.741Z,101740.98
2022-11-14T04:29:30.719Z,101754.02
2022-11-14T04:30:00.682Z,101748.91
2022-11-14T04:30:34.545Z,101750.70
2022-11-14T04:31:04.867Z,101751.39
2022-11-14T04:31:34.841Z,101748.08
2022-11-14T04:32:04.807Z,101742.97
2022-11-14T04:32:34.779Z,101746.09
2022-11-14T04:33:05.903Z,101746.27
2022-11-14T04:33:35.880Z,101744.59
2022-11-14T04:34:05.854Z,101746.42
2022-11-14T04:34:35.834Z,101738.00
2022-11-14T04:35:05.838Z,101739.99
2022-11-14T04:35:35.821Z,101740.16
2022-11-14T04:36:05.794Z,101746.43
2022-11-14T04:36:35.781Z,101743.11
2022-11-14T04:37:05.756Z,101741.16
2022-11-14T04:37:35.737Z,101740.14
2022-11-14T04:38:05.700Z,101732.73
2022-11-14T04:38:35.664Z,101740.17
2022-11-14T04:39:05.675Z,101738.67
2022-11-14T04:39:35.647Z,101740.48
2022-11-14T04:40:05.752Z,101741.31
2022-11-14T04:40:35.718Z,101730.61
2022-11-14T04:41:05.702Z,101735.05
2022-11-14T04:41:35.677Z,101734.38
2022-11-14T04:42:05.671Z,101738.19
2022-11-14T04:42:35.636Z,101730.91
2022-11-14T04:43:05.606Z,101728.79
2022-11-14T04:43:35.581Z,101729.30
2022-11-14T04:44:05.561Z,101727.95
2022-11-14T04:44:35.541Z,101731.92
2022-11-14T04:45:05.692Z,101731.41
2022-11-14T04:45:35.808Z,101727.97
2022-11-14T04:46:05.785Z,101732.25
2022-11-14T04:46:35.755Z,101724.33
2022-11-14T04:47:05.732Z,101728.63
2022-11-14T04:47:35.700Z,101727.45
2022-11-14T04:48:05.667Z,101724.17
2022-11-14T04:48:35.638Z,101719.06
2022-11-14T04:49:05.633Z,101724.02
2022-11-14T04:49:35.598Z,101724.48
2022-11-14T04:50:05.618Z,101728.63
2022-11-14T04:50:35.581Z,101724.49
2022-11-14T04:51:05.584Z,101720.87
2022-11-14T04:51:35.594Z,101723.52
2022-11-14T04:52:05.574Z,101723.52
2022-11-14T04:52:35.544Z,101719.06
2022-11-14T04:53:05.523Z,101718.56
2022-11-14T04:53:35.492Z,101719.72
2022-11-14T04:54:05.496Z,101721.70
2022-11-14T04:54:35.474Z,101714.62
2022-11-14T04:55:05.488Z,101718.56
2022-11-14T04:55:35.585Z,101718.57
2022-11-14T04:56:05.553Z,101716.27
2022-11-14T04:56:35.546Z,101716.92
2022-11-14T04:57:05.516Z,101717.09
2022-11-14T04:57:35.494Z,101714.62
2022-11-14T04:58:05.502Z,101714.11
2022-11-14T04:58:35.478Z,101720.39
2022-11-14T04:59:05.497Z,101712.13
2022-11-14T04:59:35.505Z,101716.77
2022-11-14T05:00:05.473Z,101715.61
2022-11-14T05:00:35.460Z,101717.08
2022-11-14T05:01:05.506Z,101716.25
2022-11-14T05:01:35.675Z,101717.57
2022-11-14T05:02:05.692Z,101717.91
2022-11-14T05:02:35.654Z,101717.25
2022-11-14T05:03:05.626Z,101718.56
2022-11-14T05:03:35.620Z,101721.05
2022-11-14T05:04:05.592Z,101714.45
2022-11-14T05:04:35.567Z,101719.56
2022-11-14T05:05:05.550Z,101717.09
2022-11-14T05:05:40.681Z,101714.79
2022-11-14T05:06:10.466Z,101715.10
2022-11-14T05:06:40.429Z,101718.06
2022-11-14T05:07:11.052Z,101716.41
2022-11-14T05:07:41.096Z,101715.91
2022-11-14T05:08:11.111Z,101717.57
2022-11-14T05:08:41.076Z,101714.12
2022-11-14T05:09:11.057Z,101720.23
2022-11-14T05:09:41.021Z,101717.92
2022-11-14T05:10:10.994Z,101716.42
2022-11-14T05:10:40.995Z,101718.23
2022-11-14T05:11:10.956Z,101715.76
2022-11-14T05:11:40.948Z,101714.95
2022-11-14T05:12:10.944Z,101710.66
2022-11-14T05:12:40.912Z,101709.83
2022-11-14T05:13:10.894Z,101711.16
2022-11-14T05:13:40.869Z,101710.50
2022-11-14T05:14:10.858Z,101708.35
2022-11-14T05:14:40.833Z,101707.86
2022-11-14T05:15:10.847Z,101707.20
2022-11-14T05:15:40.819Z,101711.16
2022-11-14T05:16:10.798Z,101708.67
2022-11-14T05:16:40.757Z,101706.86
2022-11-14T05:17:10.749Z,101706.37
2022-11-14T05:17:40.711Z,101705.56
2022-11-14T05:18:10.687Z,101709.17
2022-11-14T05:18:44.375Z,101710.81
2022-11-14T05:19:15.573Z,101702.27
2022-11-14T05:19:45.575Z,101703.91
2022-11-14T05:20:15.569Z,101704.41
2022-11-14T05:20:45.631Z,101702.42
2022-11-14T05:21:15.611Z,101702.74
2022-11-14T05:21:45.584Z,101705.88
2022-11-14T05:22:16.257Z,101704.07
2022-11-14T05:22:46.229Z,101699.27
2022-11-14T05:23:16.224Z,101701.77
2022-11-14T05:23:46.187Z,101698.78
2022-11-14T05:24:16.171Z,101698.47
2022-11-14T05:24:46.155Z,101701.42
2022-11-14T05:25:16.114Z,101698.31
2022-11-14T05:25:46.108Z,101700.28
2022-11-14T05:26:16.079Z,101696.16
2022-11-14T05:26:46.046Z,101693.84
2022-11-14T05:27:16.018Z,101692.36
2022-11-14T05:27:46.001Z,101694.84
2022-11-14T05:28:15.964Z,101696.97
2022-11-14T05:28:45.976Z,101696.15
2022-11-14T05:29:15.944Z,101693.50
2022-11-14T05:29:45.916Z,101693.19
2022-11-14T05:30:15.893Z,101692.18
2022-11-14T05:30:45.882Z,101691.39
2022-11-14T05:31:15.890Z,101688.75
2022-11-14T05:31:45.865Z,101689.89
2022-11-14T05:32:16.516Z,101691.70
2022-11-14T05:32:46.605Z,101691.06
2022-11-14T05:33:16.580Z,101688.42
2022-11-14T05:33:46.564Z,101687.27
2022-11-14T05:34:16.525Z,101691.88
2022-11-14T05:34:46.502Z,101688.25
2022-11-14T05:35:16.477Z,101687.91
2022-11-14T05:35:46.463Z,101687.91
2022-11-14T05:36:16.455Z,101686.73
2022-11-14T05:36:46.428Z,101687.08
2022-11-14T05:37:16.400Z,101690.38
2022-11-14T05:37:46.380Z,101692.03
2022-11-14T05:38:16.346Z,101689.39
2022-11-14T05:38:46.391Z,101686.91
2022-11-14T05:39:16.355Z,101690.73
2022-11-14T05:39:46.327Z,101687.59
2022-11-14T05:40:16.331Z,101687.92
2022-11-14T05:40:46.294Z,101692.19
2022-11-14T05:41:16.289Z,101690.21
2022-11-14T05:41:46.272Z,101687.25
2022-11-14T05:42:16.229Z,101687.59
2022-11-14T05:42:46.204Z,101692.36